sensor_id;sensor_type;location;lat;lon;timestamp;P1;durP1;ratioP1;P2;durP2;ratioP2
63782;SDS011;49925;52.522;5.732;2022-09-09T00:04:37;9.85;;;5.38;;
63782;SDS011;49925;52.522;5.732;2022-09-09T00:10:08;13.60;;;5.13;;
63782;SDS011;49925;52.522;5.732;2022-09-09T00:13:05;10.88;;;5.20;;
63782;SDS011;49925;52.522;5.732;2022-09-09T00:15:55;9.37;;;5.50;;
63782;SDS011;49925;52.522;5.732;2022-09-09T00:18:45;17.15;;;6.13;;
63782;SDS011;49925;52.522;5.732;2022-09-09T00:24:08;12.65;;;5.68;;
63782;SDS011;49925;52.522;5.732;2022-09-09T00:26:48;12.02;;;5.78;;
63782;SDS011;49925;52.522;5.732;2022-09-09T00:32:12;11.65;;;4.78;;
63782;SDS011;49925;52.522;5.732;2022-09-09T00:37:42;9.90;;;4.18;;
63782;SDS011;49925;52.522;5.732;2022-09-09T00:40:23;12.82;;;3.85;;
63782;SDS011;49925;52.522;5.732;2022-09-09T00:43:03;8.80;;;4.30;;
63782;SDS011;49925;52.522;5.732;2022-09-09T00:52:09;6.50;;;2.90;;
63782;SDS011;49925;52.522;5.732;2022-09-09T00:57:39;7.25;;;2.63;;
63782;SDS011;49925;52.522;5.732;2022-09-09T01:00:18;5.63;;;2.58;;
63782;SDS011;49925;52.522;5.732;2022-09-09T01:14:43;16.48;;;2.55;;
63782;SDS011;49925;52.522;5.732;2022-09-09T01:26:43;10.50;;;2.53;;
63782;SDS011;49925;52.522;5.732;2022-09-09T01:29:12;5.35;;;2.10;;
63782;SDS011;49925;52.522;5.732;2022-09-09T01:31:51;4.60;;;1.90;;
63782;SDS011;49925;52.522;5.732;2022-09-09T01:34:28;8.00;;;2.30;;
63782;SDS011;49925;52.522;5.732;2022-09-09T01:37:03;6.57;;;2.33;;
63782;SDS011;49925;52.522;5.732;2022-09-09T01:39:34;6.47;;;2.10;;
63782;SDS011;49925;52.522;5.732;2022-09-09T01:42:03;7.55;;;2.60;;
63782;SDS011;49925;52.522;5.732;2022-09-09T01:44:32;10.45;;;2.55;;
63782;SDS011;49925;52.522;5.732;2022-09-09T01:47:01;9.65;;;2.67;;
63782;SDS011;49925;52.522;5.732;2022-09-09T01:49:29;15.43;;;2.50;;
63782;SDS011;49925;52.522;5.732;2022-09-09T01:51:57;9.32;;;2.85;;
63782;SDS011;49925;52.522;5.732;2022-09-09T01:54:26;12.55;;;3.22;;
63782;SDS011;49925;52.522;5.732;2022-09-09T01:57:15;13.20;;;3.13;;
63782;SDS011;49925;52.522;5.732;2022-09-09T01:59:59;10.07;;;3.20;;
63782;SDS011;49925;52.522;5.732;2022-09-09T02:05:44;14.05;;;3.28;;
63782;SDS011;49925;52.522;5.732;2022-09-09T02:08:23;7.13;;;3.50;;
63782;SDS011;49925;52.522;5.732;2022-09-09T02:36:19;13.80;;;4.70;;
63782;SDS011;49925;52.522;5.732;2022-09-09T02:38:49;7.40;;;4.15;;
63782;SDS011;49925;52.522;5.732;2022-09-09T02:41:19;11.40;;;4.70;;
63782;SDS011;49925;52.522;5.732;2022-09-09T02:43:49;12.20;;;4.78;;
63782;SDS011;49925;52.522;5.732;2022-09-09T02:49:02;11.57;;;5.20;;
63782;SDS011;49925;52.522;5.732;2022-09-09T02:51:40;12.23;;;4.93;;
63782;SDS011;49925;52.522;5.732;2022-09-09T02:54:31;13.52;;;5.18;;
63782;SDS011;49925;52.522;5.732;2022-09-09T02:57:08;14.55;;;6.03;;
63782;SDS011;49925;52.522;5.732;2022-09-09T02:59:49;11.52;;;4.90;;
63782;SDS011;49925;52.522;5.732;2022-09-09T03:02:18;15.05;;;5.65;;
63782;SDS011;49925;52.522;5.732;2022-09-09T03:04:45;13.73;;;5.90;;
63782;SDS011;49925;52.522;5.732;2022-09-09T03:09:45;10.88;;;6.05;;
63782;SDS011;49925;52.522;5.732;2022-09-09T03:12:12;12.82;;;5.80;;
63782;SDS011;49925;52.522;5.732;2022-09-09T03:14:39;13.77;;;5.88;;
63782;SDS011;49925;52.522;5.732;2022-09-09T03:17:06;24.27;;;6.95;;
63782;SDS011;49925;52.522;5.732;2022-09-09T03:19:34;10.65;;;6.45;;
63782;SDS011;49925;52.522;5.732;2022-09-09T03:22:02;15.45;;;7.03;;
63782;SDS011;49925;52.522;5.732;2022-09-09T03:24:30;26.25;;;6.95;;
63782;SDS011;49925;52.522;5.732;2022-09-09T03:54:02;22.40;;;7.32;;
63782;SDS011;49925;52.522;5.732;2022-09-09T03:56:34;17.23;;;7.65;;
63782;SDS011;49925;52.522;5.732;2022-09-09T03:59:02;13.13;;;7.40;;
63782;SDS011;49925;52.522;5.732;2022-09-09T04:01:30;15.60;;;7.45;;
63782;SDS011;49925;52.522;5.732;2022-09-09T04:03:58;20.63;;;8.32;;
63782;SDS011;49925;52.522;5.732;2022-09-09T04:06:26;30.73;;;8.52;;
63782;SDS011;49925;52.522;5.732;2022-09-09T04:08:54;17.92;;;8.70;;
63782;SDS011;49925;52.522;5.732;2022-09-09T04:11:24;26.00;;;8.85;;
63782;SDS011;49925;52.522;5.732;2022-09-09T04:13:51;17.98;;;7.80;;
63782;SDS011;49925;52.522;5.732;2022-09-09T04:38:33;20.70;;;8.45;;
63782;SDS011;49925;52.522;5.732;2022-09-09T04:41:00;21.55;;;8.50;;
63782;SDS011;49925;52.522;5.732;2022-09-09T04:43:28;17.48;;;7.40;;
63782;SDS011;49925;52.522;5.732;2022-09-09T04:45:57;24.10;;;7.28;;
63782;SDS011;49925;52.522;5.732;2022-09-09T04:48:25;15.18;;;7.60;;
63782;SDS011;49925;52.522;5.732;2022-09-09T04:50:55;19.17;;;7.95;;
63782;SDS011;49925;52.522;5.732;2022-09-09T04:53:26;19.38;;;7.38;;
63782;SDS011;49925;52.522;5.732;2022-09-09T04:56:04;18.58;;;7.60;;
63782;SDS011;49925;52.522;5.732;2022-09-09T04:58:34;19.50;;;7.93;;
63782;SDS011;49925;52.522;5.732;2022-09-09T05:01:06;18.33;;;7.80;;
63782;SDS011;49925;52.522;5.732;2022-09-09T05:03:44;15.40;;;7.03;;
63782;SDS011;49925;52.522;5.732;2022-09-09T05:06:13;19.08;;;6.97;;
63782;SDS011;49925;52.522;5.732;2022-09-09T05:08:42;20.25;;;7.90;;
63782;SDS011;49925;52.522;5.732;2022-09-09T05:11:20;17.42;;;6.82;;
63782;SDS011;49925;52.522;5.732;2022-09-09T05:13:50;17.02;;;7.07;;
63782;SDS011;49925;52.522;5.732;2022-09-09T05:16:18;18.95;;;7.00;;
63782;SDS011;49925;52.522;5.732;2022-09-09T05:18:46;18.33;;;7.65;;
63782;SDS011;49925;52.522;5.732;2022-09-09T05:21:15;14.80;;;7.45;;
63782;SDS011;49925;52.522;5.732;2022-09-09T05:23:44;17.00;;;7.10;;
63782;SDS011;49925;52.522;5.732;2022-09-09T05:26:13;17.17;;;6.90;;
63782;SDS011;49925;52.522;5.732;2022-09-09T05:28:47;26.48;;;7.97;;
63782;SDS011;49925;52.522;5.732;2022-09-09T05:31:15;15.57;;;7.47;;
63782;SDS011;49925;52.522;5.732;2022-09-09T05:33:44;19.20;;;7.30;;
63782;SDS011;49925;52.522;5.732;2022-09-09T05:36:13;15.32;;;7.18;;
63782;SDS011;49925;52.522;5.732;2022-09-09T05:38:45;13.93;;;6.97;;
63782;SDS011;49925;52.522;5.732;2022-09-09T05:41:13;16.92;;;7.13;;
63782;SDS011;49925;52.522;5.732;2022-09-09T05:43:44;12.48;;;6.93;;
63782;SDS011;49925;52.522;5.732;2022-09-09T05:46:12;17.92;;;7.45;;
63782;SDS011;49925;52.522;5.732;2022-09-09T05:48:43;14.18;;;6.75;;
63782;SDS011;49925;52.522;5.732;2022-09-09T05:51:15;16.23;;;7.03;;
63782;SDS011;49925;52.522;5.732;2022-09-09T05:53:44;18.77;;;8.50;;
63782;SDS011;49925;52.522;5.732;2022-09-09T05:56:23;18.67;;;7.45;;
63782;SDS011;49925;52.522;5.732;2022-09-09T05:58:53;15.27;;;6.57;;
63782;SDS011;49925;52.522;5.732;2022-09-09T06:01:25;12.43;;;6.03;;
63782;SDS011;49925;52.522;5.732;2022-09-09T06:03:54;17.05;;;6.70;;
63782;SDS011;49925;52.522;5.732;2022-09-09T06:06:26;17.13;;;7.82;;
63782;SDS011;49925;52.522;5.732;2022-09-09T06:09:03;16.67;;;6.63;;
63782;SDS011;49925;52.522;5.732;2022-09-09T06:11:39;13.73;;;6.00;;
63782;SDS011;49925;52.522;5.732;2022-09-09T06:21:36;13.43;;;6.13;;
63782;SDS011;49925;52.522;5.732;2022-09-09T06:24:03;17.13;;;6.03;;
63782;SDS011;49925;52.522;5.732;2022-09-09T06:26:34;11.90;;;5.65;;
63782;SDS011;49925;52.522;5.732;2022-09-09T06:29:03;15.95;;;5.50;;
63782;SDS011;49925;52.522;5.732;2022-09-09T06:31:33;14.30;;;6.57;;
63782;SDS011;49925;52.522;5.732;2022-09-09T06:34:06;21.13;;;6.60;;
63782;SDS011;49925;52.522;5.732;2022-09-09T06:39:03;15.43;;;6.88;;
63782;SDS011;49925;52.522;5.732;2022-09-09T06:41:37;17.85;;;6.28;;
63782;SDS011;49925;52.522;5.732;2022-09-09T06:46:37;23.73;;;6.32;;
63782;SDS011;49925;52.522;5.732;2022-09-09T06:49:06;24.35;;;6.85;;
63782;SDS011;49925;52.522;5.732;2022-09-09T06:51:35;18.80;;;6.50;;
63782;SDS011;49925;52.522;5.732;2022-09-09T06:54:09;16.10;;;6.35;;
63782;SDS011;49925;52.522;5.732;2022-09-09T06:56:41;21.95;;;6.38;;
63782;SDS011;49925;52.522;5.732;2022-09-09T06:59:09;21.75;;;6.85;;
63782;SDS011;49925;52.522;5.732;2022-09-09T07:01:39;26.33;;;6.93;;
63782;SDS011;49925;52.522;5.732;2022-09-09T07:04:08;12.93;;;5.75;;
63782;SDS011;49925;52.522;5.732;2022-09-09T07:06:38;24.80;;;6.07;;
63782;SDS011;49925;52.522;5.732;2022-09-09T07:09:10;18.17;;;6.28;;
63782;SDS011;49925;52.522;5.732;2022-09-09T07:11:43;18.15;;;5.80;;
63782;SDS011;49925;52.522;5.732;2022-09-09T07:14:12;20.63;;;6.20;;
63782;SDS011;49925;52.522;5.732;2022-09-09T07:16:43;19.00;;;6.20;;
63782;SDS011;49925;52.522;5.732;2022-09-09T07:19:12;20.60;;;5.75;;
63782;SDS011;49925;52.522;5.732;2022-09-09T07:21:40;15.07;;;5.55;;
63782;SDS011;49925;52.522;5.732;2022-09-09T07:24:08;16.45;;;5.50;;
63782;SDS011;49925;52.522;5.732;2022-09-09T07:26:37;14.70;;;5.55;;
63782;SDS011;49925;52.522;5.732;2022-09-09T07:29:06;19.55;;;5.40;;
63782;SDS011;49925;52.522;5.732;2022-09-09T07:31:35;14.27;;;5.20;;
63782;SDS011;49925;52.522;5.732;2022-09-09T07:34:04;20.08;;;5.32;;
63782;SDS011;49925;52.522;5.732;2022-09-09T07:36:32;27.65;;;5.28;;
63782;SDS011;49925;52.522;5.732;2022-09-09T07:49:11;25.63;;;5.93;;
63782;SDS011;49925;52.522;5.732;2022-09-09T09:53:42;15.90;;;4.20;;
63782;SDS011;49925;52.522;5.732;2022-09-09T09:56:10;27.73;;;4.22;;
63782;SDS011;49925;52.522;5.732;2022-09-09T10:04:03;13.95;;;3.95;;
63782;SDS011;49925;52.522;5.732;2022-09-09T10:06:47;18.88;;;3.70;;
63782;SDS011;49925;52.522;5.732;2022-09-09T10:09:20;19.58;;;3.92;;
63782;SDS011;49925;52.522;5.732;2022-09-09T10:28:04;25.77;;;5.25;;
63782;SDS011;49925;52.522;5.732;2022-09-09T10:30:45;20.50;;;4.97;;
63782;SDS011;49925;52.522;5.732;2022-09-09T10:33:56;17.90;;;4.20;;
63782;SDS011;49925;52.522;5.732;2022-09-09T10:36:21;26.05;;;4.13;;
63782;SDS011;49925;52.522;5.732;2022-09-09T10:44:37;24.23;;;4.03;;
63782;SDS011;49925;52.522;5.732;2022-09-09T12:42:18;12.73;;;3.70;;
63782;SDS011;49925;52.522;5.732;2022-09-09T12:45:02;11.10;;;3.72;;
63782;SDS011;49925;52.522;5.732;2022-09-09T12:47:48;9.13;;;3.88;;
63782;SDS011;49925;52.522;5.732;2022-09-09T12:50:23;14.35;;;3.60;;
63782;SDS011;49925;52.522;5.732;2022-09-09T12:53:09;15.60;;;4.10;;
63782;SDS011;49925;52.522;5.732;2022-09-09T12:55:49;13.93;;;3.40;;
63782;SDS011;49925;52.522;5.732;2022-09-09T12:58:20;12.82;;;3.65;;
63782;SDS011;49925;52.522;5.732;2022-09-09T13:00:48;11.55;;;3.55;;
63782;SDS011;49925;52.522;5.732;2022-09-09T13:03:22;10.13;;;3.50;;
63782;SDS011;49925;52.522;5.732;2022-09-09T13:05:51;26.48;;;3.90;;
63782;SDS011;49925;52.522;5.732;2022-09-09T13:08:19;13.23;;;3.20;;
63782;SDS011;49925;52.522;5.732;2022-09-09T13:10:48;13.27;;;3.78;;
63782;SDS011;49925;52.522;5.732;2022-09-09T13:13:29;11.73;;;3.50;;
63782;SDS011;49925;52.522;5.732;2022-09-09T13:16:02;8.93;;;3.55;;
63782;SDS011;49925;52.522;5.732;2022-09-09T13:18:37;16.00;;;4.13;;
63782;SDS011;49925;52.522;5.732;2022-09-09T13:21:08;14.73;;;4.00;;
63782;SDS011;49925;52.522;5.732;2022-09-09T13:23:36;14.27;;;3.90;;
63782;SDS011;49925;52.522;5.732;2022-09-09T13:26:06;17.63;;;4.22;;
63782;SDS011;49925;52.522;5.732;2022-09-09T13:28:54;14.38;;;4.18;;
63782;SDS011;49925;52.522;5.732;2022-09-09T13:31:23;19.08;;;4.70;;
63782;SDS011;49925;52.522;5.732;2022-09-09T13:33:58;16.58;;;4.90;;
63782;SDS011;49925;52.522;5.732;2022-09-09T13:36:31;14.80;;;4.38;;
63782;SDS011;49925;52.522;5.732;2022-09-09T13:39:01;16.33;;;4.50;;
63782;SDS011;49925;52.522;5.732;2022-09-09T13:41:31;24.70;;;5.05;;
63782;SDS011;49925;52.522;5.732;2022-09-09T13:44:03;14.70;;;4.32;;
63782;SDS011;49925;52.522;5.732;2022-09-09T13:46:40;16.20;;;4.70;;
63782;SDS011;49925;52.522;5.732;2022-09-09T13:51:44;18.73;;;5.40;;
63782;SDS011;49925;52.522;5.732;2022-09-09T13:54:31;10.40;;;4.57;;
63782;SDS011;49925;52.522;5.732;2022-09-09T13:56:58;12.55;;;4.90;;
63782;SDS011;49925;52.522;5.732;2022-09-09T13:59:30;14.82;;;4.80;;
63782;SDS011;49925;52.522;5.732;2022-09-09T14:02:22;18.42;;;5.55;;
63782;SDS011;49925;52.522;5.732;2022-09-09T14:04:50;20.80;;;5.50;;
63782;SDS011;49925;52.522;5.732;2022-09-09T14:07:21;17.30;;;5.10;;
63782;SDS011;49925;52.522;5.732;2022-09-09T14:09:50;19.52;;;5.28;;
63782;SDS011;49925;52.522;5.732;2022-09-09T14:12:18;22.80;;;5.50;;
63782;SDS011;49925;52.522;5.732;2022-09-09T14:14:46;16.85;;;5.40;;
63782;SDS011;49925;52.522;5.732;2022-09-09T14:17:13;16.65;;;5.07;;
63782;SDS011;49925;52.522;5.732;2022-09-09T14:19:41;18.52;;;5.38;;
63782;SDS011;49925;52.522;5.732;2022-09-09T14:22:09;13.55;;;4.88;;
63782;SDS011;49925;52.522;5.732;2022-09-09T14:24:37;21.33;;;5.32;;
63782;SDS011;49925;52.522;5.732;2022-09-09T14:27:05;12.27;;;5.25;;
63782;SDS011;49925;52.522;5.732;2022-09-09T14:29:33;15.35;;;5.00;;
63782;SDS011;49925;52.522;5.732;2022-09-09T14:32:00;12.70;;;4.95;;
63782;SDS011;49925;52.522;5.732;2022-09-09T14:34:28;22.05;;;5.75;;
63782;SDS011;49925;52.522;5.732;2022-09-09T14:36:56;26.48;;;5.45;;
63782;SDS011;49925;52.522;5.732;2022-09-09T14:41:56;16.08;;;5.45;;
63782;SDS011;49925;52.522;5.732;2022-09-09T14:44:24;14.10;;;4.95;;
63782;SDS011;49925;52.522;5.732;2022-09-09T14:46:52;17.50;;;5.03;;
63782;SDS011;49925;52.522;5.732;2022-09-09T14:49:20;14.77;;;4.78;;
63782;SDS011;49925;52.522;5.732;2022-09-09T14:51:48;24.85;;;4.95;;
63782;SDS011;49925;52.522;5.732;2022-09-09T14:54:15;12.80;;;4.85;;
63782;SDS011;49925;52.522;5.732;2022-09-09T14:56:42;11.85;;;5.07;;
63782;SDS011;49925;52.522;5.732;2022-09-09T14:59:09;14.38;;;4.60;;
63782;SDS011;49925;52.522;5.732;2022-09-09T15:01:36;16.48;;;5.00;;
63782;SDS011;49925;52.522;5.732;2022-09-09T15:04:04;16.13;;;4.90;;
63782;SDS011;49925;52.522;5.732;2022-09-09T15:06:34;14.00;;;4.85;;
63782;SDS011;49925;52.522;5.732;2022-09-09T15:09:04;19.23;;;4.53;;
63782;SDS011;49925;52.522;5.732;2022-09-09T15:11:33;12.07;;;4.78;;
63782;SDS011;49925;52.522;5.732;2022-09-09T15:14:05;16.80;;;4.22;;
63782;SDS011;49925;52.522;5.732;2022-09-09T15:16:34;16.75;;;5.07;;
63782;SDS011;49925;52.522;5.732;2022-09-09T15:19:02;11.93;;;3.90;;
63782;SDS011;49925;52.522;5.732;2022-09-09T15:21:31;18.63;;;5.38;;
63782;SDS011;49925;52.522;5.732;2022-09-09T15:24:00;15.60;;;4.93;;
63782;SDS011;49925;52.522;5.732;2022-09-09T15:26:28;15.65;;;4.93;;
63782;SDS011;49925;52.522;5.732;2022-09-09T15:28:59;14.13;;;4.68;;
63782;SDS011;49925;52.522;5.732;2022-09-09T15:31:30;18.45;;;4.97;;
63782;SDS011;49925;52.522;5.732;2022-09-09T15:33:59;12.15;;;4.43;;
63782;SDS011;49925;52.522;5.732;2022-09-09T15:36:30;14.57;;;4.00;;
63782;SDS011;49925;52.522;5.732;2022-09-09T15:39:02;12.18;;;4.57;;
63782;SDS011;49925;52.522;5.732;2022-09-09T15:41:31;14.27;;;4.28;;
63782;SDS011;49925;52.522;5.732;2022-09-09T15:44:02;13.77;;;4.72;;
63782;SDS011;49925;52.522;5.732;2022-09-09T15:46:36;12.55;;;4.00;;
63782;SDS011;49925;52.522;5.732;2022-09-09T15:49:08;14.50;;;4.43;;
63782;SDS011;49925;52.522;5.732;2022-09-09T15:51:43;12.27;;;4.35;;
63782;SDS011;49925;52.522;5.732;2022-09-09T15:54:14;14.07;;;4.80;;
63782;SDS011;49925;52.522;5.732;2022-09-09T15:59:16;15.10;;;5.13;;
63782;SDS011;49925;52.522;5.732;2022-09-09T16:01:44;17.08;;;4.05;;
63782;SDS011;49925;52.522;5.732;2022-09-09T16:04:11;13.47;;;4.00;;
63782;SDS011;49925;52.522;5.732;2022-09-09T16:06:38;12.50;;;4.07;;
63782;SDS011;49925;52.522;5.732;2022-09-09T16:09:06;10.80;;;4.30;;
63782;SDS011;49925;52.522;5.732;2022-09-09T16:11:35;13.07;;;4.10;;
63782;SDS011;49925;52.522;5.732;2022-09-09T16:14:04;10.88;;;4.22;;
63782;SDS011;49925;52.522;5.732;2022-09-09T16:16:33;15.95;;;4.65;;
63782;SDS011;49925;52.522;5.732;2022-09-09T16:19:05;11.73;;;4.20;;
63782;SDS011;49925;52.522;5.732;2022-09-09T16:21:37;14.52;;;4.03;;
63782;SDS011;49925;52.522;5.732;2022-09-09T16:24:10;15.77;;;4.32;;
63782;SDS011;49925;52.522;5.732;2022-09-09T16:26:44;19.52;;;5.00;;
63782;SDS011;49925;52.522;5.732;2022-09-09T16:29:14;16.98;;;4.72;;
63782;SDS011;49925;52.522;5.732;2022-09-09T16:31:43;16.70;;;4.45;;
63782;SDS011;49925;52.522;5.732;2022-09-09T16:34:11;12.48;;;4.65;;
63782;SDS011;49925;52.522;5.732;2022-09-09T16:36:39;13.02;;;4.85;;
63782;SDS011;49925;52.522;5.732;2022-09-09T16:39:08;10.40;;;4.68;;
63782;SDS011;49925;52.522;5.732;2022-09-09T16:41:38;16.80;;;4.97;;
63782;SDS011;49925;52.522;5.732;2022-09-09T16:44:07;13.85;;;4.53;;
63782;SDS011;49925;52.522;5.732;2022-09-09T16:46:36;15.57;;;5.10;;
63782;SDS011;49925;52.522;5.732;2022-09-09T16:49:08;16.33;;;6.75;;
63782;SDS011;49925;52.522;5.732;2022-09-09T16:51:39;13.63;;;5.35;;
63782;SDS011;49925;52.522;5.732;2022-09-09T16:54:10;15.98;;;5.43;;
63782;SDS011;49925;52.522;5.732;2022-09-09T16:56:38;14.98;;;5.35;;
63782;SDS011;49925;52.522;5.732;2022-09-09T16:59:09;15.63;;;5.50;;
63782;SDS011;49925;52.522;5.732;2022-09-09T17:01:41;13.98;;;4.90;;
63782;SDS011;49925;52.522;5.732;2022-09-09T17:04:12;12.52;;;4.80;;
63782;SDS011;49925;52.522;5.732;2022-09-09T17:06:45;12.65;;;4.60;;
63782;SDS011;49925;52.522;5.732;2022-09-09T17:09:13;13.77;;;5.30;;
63782;SDS011;49925;52.522;5.732;2022-09-09T17:11:40;14.75;;;5.40;;
63782;SDS011;49925;52.522;5.732;2022-09-09T17:14:08;16.10;;;4.25;;
63782;SDS011;49925;52.522;5.732;2022-09-09T17:16:40;16.35;;;4.03;;
63782;SDS011;49925;52.522;5.732;2022-09-09T17:19:09;10.57;;;4.07;;
63782;SDS011;49925;52.522;5.732;2022-09-09T17:21:37;17.67;;;3.92;;
63782;SDS011;49925;52.522;5.732;2022-09-09T17:24:25;9.43;;;3.40;;
63782;SDS011;49925;52.522;5.732;2022-09-09T17:26:53;9.60;;;3.20;;
63782;SDS011;49925;52.522;5.732;2022-09-09T17:29:21;10.55;;;3.28;;
63782;SDS011;49925;52.522;5.732;2022-09-09T17:31:48;10.63;;;3.45;;
63782;SDS011;49925;52.522;5.732;2022-09-09T17:34:15;14.30;;;3.85;;
63782;SDS011;49925;52.522;5.732;2022-09-09T17:36:42;11.32;;;3.60;;
63782;SDS011;49925;52.522;5.732;2022-09-09T17:39:09;10.70;;;3.35;;
63782;SDS011;49925;52.522;5.732;2022-09-09T17:41:37;10.77;;;3.28;;
63782;SDS011;49925;52.522;5.732;2022-09-09T17:44:06;12.93;;;3.00;;
63782;SDS011;49925;52.522;5.732;2022-09-09T17:46:34;9.27;;;3.42;;
63782;SDS011;49925;52.522;5.732;2022-09-09T17:49:11;12.10;;;3.28;;
63782;SDS011;49925;52.522;5.732;2022-09-09T17:51:40;8.80;;;3.13;;
63782;SDS011;49925;52.522;5.732;2022-09-09T17:54:13;8.90;;;3.95;;
63782;SDS011;49925;52.522;5.732;2022-09-09T17:56:43;13.40;;;3.42;;
63782;SDS011;49925;52.522;5.732;2022-09-09T17:59:10;11.60;;;3.20;;
63782;SDS011;49925;52.522;5.732;2022-09-09T18:01:40;16.55;;;3.80;;
63782;SDS011;49925;52.522;5.732;2022-09-09T18:04:11;24.00;;;3.38;;
63782;SDS011;49925;52.522;5.732;2022-09-09T18:06:44;9.93;;;3.10;;
63782;SDS011;49925;52.522;5.732;2022-09-09T18:09:15;12.50;;;3.33;;
63782;SDS011;49925;52.522;5.732;2022-09-09T18:11:49;11.50;;;3.42;;
63782;SDS011;49925;52.522;5.732;2022-09-09T18:14:20;15.20;;;3.50;;
63782;SDS011;49925;52.522;5.732;2022-09-09T18:16:57;13.88;;;4.50;;
63782;SDS011;49925;52.522;5.732;2022-09-09T18:19:26;9.77;;;4.07;;
63782;SDS011;49925;52.522;5.732;2022-09-09T18:21:56;14.13;;;4.47;;
63782;SDS011;49925;52.522;5.732;2022-09-09T18:24:28;10.13;;;4.22;;
63782;SDS011;49925;52.522;5.732;2022-09-09T18:26:56;10.20;;;5.00;;
63782;SDS011;49925;52.522;5.732;2022-09-09T18:29:25;12.52;;;4.80;;
63782;SDS011;49925;52.522;5.732;2022-09-09T18:31:52;10.75;;;4.80;;
63782;SDS011;49925;52.522;5.732;2022-09-09T18:34:21;17.60;;;7.55;;
63782;SDS011;49925;52.522;5.732;2022-09-09T18:36:52;13.05;;;5.25;;
63782;SDS011;49925;52.522;5.732;2022-09-09T18:39:22;11.10;;;4.55;;
63782;SDS011;49925;52.522;5.732;2022-09-09T18:41:54;15.82;;;5.20;;
63782;SDS011;49925;52.522;5.732;2022-09-09T18:44:26;11.77;;;4.60;;
63782;SDS011;49925;52.522;5.732;2022-09-09T18:46:58;18.15;;;4.63;;
63782;SDS011;49925;52.522;5.732;2022-09-09T18:49:26;12.20;;;4.85;;
63782;SDS011;49925;52.522;5.732;2022-09-09T18:51:54;11.90;;;5.00;;
63782;SDS011;49925;52.522;5.732;2022-09-09T18:54:23;8.73;;;4.95;;
63782;SDS011;49925;52.522;5.732;2022-09-09T18:56:55;9.18;;;4.43;;
63782;SDS011;49925;52.522;5.732;2022-09-09T18:59:24;17.25;;;5.18;;
63782;SDS011;49925;52.522;5.732;2022-09-09T19:01:53;24.60;;;5.28;;
63782;SDS011;49925;52.522;5.732;2022-09-09T19:04:21;13.55;;;5.30;;
63782;SDS011;49925;52.522;5.732;2022-09-09T19:06:49;11.80;;;5.25;;
63782;SDS011;49925;52.522;5.732;2022-09-09T19:09:25;16.17;;;5.93;;
63782;SDS011;49925;52.522;5.732;2022-09-09T19:11:57;13.25;;;5.28;;
63782;SDS011;49925;52.522;5.732;2022-09-09T19:14:26;15.73;;;7.93;;
63782;SDS011;49925;52.522;5.732;2022-09-09T19:16:53;13.00;;;5.80;;
63782;SDS011;49925;52.522;5.732;2022-09-09T19:19:24;12.70;;;6.38;;
63782;SDS011;49925;52.522;5.732;2022-09-09T19:21:58;12.50;;;6.05;;
63782;SDS011;49925;52.522;5.732;2022-09-09T19:24:30;15.02;;;6.15;;
63782;SDS011;49925;52.522;5.732;2022-09-09T19:27:04;17.98;;;6.47;;
63782;SDS011;49925;52.522;5.732;2022-09-09T19:29:33;16.08;;;6.47;;
63782;SDS011;49925;52.522;5.732;2022-09-09T19:32:01;19.10;;;6.20;;
63782;SDS011;49925;52.522;5.732;2022-09-09T20:39:17;16.33;;;8.60;;
63782;SDS011;49925;52.522;5.732;2022-09-09T20:41:46;36.72;;;13.05;;
63782;SDS011;49925;52.522;5.732;2022-09-09T20:44:14;14.55;;;8.73;;
63782;SDS011;49925;52.522;5.732;2022-09-09T20:46:45;18.52;;;9.25;;
63782;SDS011;49925;52.522;5.732;2022-09-09T20:49:18;18.83;;;9.13;;
63782;SDS011;49925;52.522;5.732;2022-09-09T20:51:47;23.35;;;9.48;;
63782;SDS011;49925;52.522;5.732;2022-09-09T20:54:22;25.60;;;10.15;;
63782;SDS011;49925;52.522;5.732;2022-09-09T20:56:53;23.97;;;10.80;;
63782;SDS011;49925;52.522;5.732;2022-09-09T23:21:20;42.78;;;22.45;;
63782;SDS011;49925;52.522;5.732;2022-09-09T23:23:51;46.95;;;24.23;;
63782;SDS011;49925;52.522;5.732;2022-09-09T23:26:19;48.75;;;23.60;;
